sensor_id;sensor_type;location;lat;lon;timestamp;P1;durP1;ratioP1;P2;durP2;ratioP2
57599;SDS011;43426;43.594;24.334;2023-05-07T00:00:45;3.63;;;2.47;;
57599;SDS011;43426;43.594;24.334;2023-05-07T00:03:10;3.28;;;2.97;;
57599;SDS011;43426;43.594;24.334;2023-05-07T00:05:36;5.40;;;3.22;;
57599;SDS011;43426;43.594;24.334;2023-05-07T00:08:03;3.50;;;3.10;;
57599;SDS011;43426;43.594;24.334;2023-05-07T00:10:28;3.40;;;2.97;;
57599;SDS011;43426;43.594;24.334;2023-05-07T00:12:54;6.13;;;3.15;;
57599;SDS011;43426;43.594;24.334;2023-05-07T00:15:19;6.47;;;3.08;;
57599;SDS011;43426;43.594;24.334;2023-05-07T00:17:45;4.30;;;3.42;;
57599;SDS011;43426;43.594;24.334;2023-05-07T00:20:10;4.57;;;3.20;;
57599;SDS011;43426;43.594;24.334;2023-05-07T00:22:36;3.40;;;3.03;;
57599;SDS011;43426;43.594;24.334;2023-05-07T00:25:01;4.00;;;3.17;;
57599;SDS011;43426;43.594;24.334;2023-05-07T00:27:27;3.30;;;3.10;;
57599;SDS011;43426;43.594;24.334;2023-05-07T00:29:52;3.37;;;3.13;;
57599;SDS011;43426;43.594;24.334;2023-05-07T00:32:18;6.93;;;3.20;;
57599;SDS011;43426;43.594;24.334;2023-05-07T00:34:43;3.83;;;3.10;;
57599;SDS011;43426;43.594;24.334;2023-05-07T00:37:09;3.70;;;3.22;;
57599;SDS011;43426;43.594;24.334;2023-05-07T00:39:34;3.72;;;3.17;;
57599;SDS011;43426;43.594;24.334;2023-05-07T00:42:00;4.88;;;3.10;;
57599;SDS011;43426;43.594;24.334;2023-05-07T00:44:26;4.68;;;3.25;;
57599;SDS011;43426;43.594;24.334;2023-05-07T00:46:52;4.22;;;3.90;;
57599;SDS011;43426;43.594;24.334;2023-05-07T00:49:19;3.67;;;3.38;;
57599;SDS011;43426;43.594;24.334;2023-05-07T00:51:45;3.47;;;2.83;;
57599;SDS011;43426;43.594;24.334;2023-05-07T00:54:11;3.05;;;2.85;;
57599;SDS011;43426;43.594;24.334;2023-05-07T00:56:37;4.50;;;2.92;;
57599;SDS011;43426;43.594;24.334;2023-05-07T01:01:30;6.60;;;3.03;;
57599;SDS011;43426;43.594;24.334;2023-05-07T01:06:22;3.70;;;3.40;;
57599;SDS011;43426;43.594;24.334;2023-05-07T01:08:49;3.63;;;3.20;;
57599;SDS011;43426;43.594;24.334;2023-05-07T01:11:17;3.75;;;3.20;;
57599;SDS011;43426;43.594;24.334;2023-05-07T01:13:45;3.20;;;3.00;;
57599;SDS011;43426;43.594;24.334;2023-05-07T01:16:12;4.00;;;3.47;;
57599;SDS011;43426;43.594;24.334;2023-05-07T01:18:37;3.97;;;3.58;;
57599;SDS011;43426;43.594;24.334;2023-05-07T01:21:04;3.60;;;3.30;;
57599;SDS011;43426;43.594;24.334;2023-05-07T01:23:30;3.92;;;3.63;;
57599;SDS011;43426;43.594;24.334;2023-05-07T01:25:55;3.78;;;2.95;;
57599;SDS011;43426;43.594;24.334;2023-05-07T01:28:21;4.00;;;2.85;;
57599;SDS011;43426;43.594;24.334;2023-05-07T01:30:49;3.05;;;2.55;;
57599;SDS011;43426;43.594;24.334;2023-05-07T01:33:18;4.03;;;3.47;;
57599;SDS011;43426;43.594;24.334;2023-05-07T01:35:47;3.35;;;3.05;;
57599;SDS011;43426;43.594;24.334;2023-05-07T01:38:15;4.47;;;2.78;;
57599;SDS011;43426;43.594;24.334;2023-05-07T01:40:41;5.05;;;3.05;;
57599;SDS011;43426;43.594;24.334;2023-05-07T01:45:34;3.45;;;2.63;;
57599;SDS011;43426;43.594;24.334;2023-05-07T01:48:01;3.15;;;2.95;;
57599;SDS011;43426;43.594;24.334;2023-05-07T01:50:28;3.53;;;3.22;;
57599;SDS011;43426;43.594;24.334;2023-05-07T01:52:54;7.20;;;4.22;;
57599;SDS011;43426;43.594;24.334;2023-05-07T01:55:20;4.57;;;3.28;;
57599;SDS011;43426;43.594;24.334;2023-05-07T01:57:45;3.90;;;3.50;;
57599;SDS011;43426;43.594;24.334;2023-05-07T02:00:11;5.05;;;3.67;;
57599;SDS011;43426;43.594;24.334;2023-05-07T02:02:37;4.18;;;3.17;;
57599;SDS011;43426;43.594;24.334;2023-05-07T02:07:28;3.60;;;3.10;;
57599;SDS011;43426;43.594;24.334;2023-05-07T02:09:54;4.43;;;2.90;;
57599;SDS011;43426;43.594;24.334;2023-05-07T02:12:20;4.50;;;3.38;;
57599;SDS011;43426;43.594;24.334;2023-05-07T02:14:46;3.50;;;3.17;;
57599;SDS011;43426;43.594;24.334;2023-05-07T02:17:11;3.85;;;3.50;;
57599;SDS011;43426;43.594;24.334;2023-05-07T02:19:37;16.48;;;3.75;;
57599;SDS011;43426;43.594;24.334;2023-05-07T02:22:02;4.03;;;3.63;;
57599;SDS011;43426;43.594;24.334;2023-05-07T02:24:27;3.92;;;3.53;;
57599;SDS011;43426;43.594;24.334;2023-05-07T02:26:53;4.30;;;3.90;;
57599;SDS011;43426;43.594;24.334;2023-05-07T02:29:18;4.68;;;4.38;;
57599;SDS011;43426;43.594;24.334;2023-05-07T02:31:44;5.18;;;4.30;;
57599;SDS011;43426;43.594;24.334;2023-05-07T02:34:09;6.43;;;4.50;;
57599;SDS011;43426;43.594;24.334;2023-05-07T02:36:35;4.45;;;4.05;;
57599;SDS011;43426;43.594;24.334;2023-05-07T02:39:01;8.65;;;4.75;;
57599;SDS011;43426;43.594;24.334;2023-05-07T02:43:53;4.75;;;4.07;;
57599;SDS011;43426;43.594;24.334;2023-05-07T02:46:18;5.53;;;4.85;;
57599;SDS011;43426;43.594;24.334;2023-05-07T02:48:44;5.18;;;4.07;;
57599;SDS011;43426;43.594;24.334;2023-05-07T02:51:09;4.13;;;3.83;;
57599;SDS011;43426;43.594;24.334;2023-05-07T02:53:35;4.13;;;3.83;;
57599;SDS011;43426;43.594;24.334;2023-05-07T02:56:00;4.83;;;4.43;;
57599;SDS011;43426;43.594;24.334;2023-05-07T02:58:26;3.92;;;3.63;;
57599;SDS011;43426;43.594;24.334;2023-05-07T03:00:52;4.47;;;4.10;;
57599;SDS011;43426;43.594;24.334;2023-05-07T03:03:19;5.43;;;4.30;;
57599;SDS011;43426;43.594;24.334;2023-05-07T03:05:45;5.30;;;4.80;;
57599;SDS011;43426;43.594;24.334;2023-05-07T03:08:10;4.68;;;4.25;;
57599;SDS011;43426;43.594;24.334;2023-05-07T03:10:36;5.03;;;4.30;;
57599;SDS011;43426;43.594;24.334;2023-05-07T03:13:02;5.35;;;4.53;;
57599;SDS011;43426;43.594;24.334;2023-05-07T03:15:28;5.50;;;4.50;;
57599;SDS011;43426;43.594;24.334;2023-05-07T03:17:53;6.38;;;4.20;;
57599;SDS011;43426;43.594;24.334;2023-05-07T03:20:18;4.33;;;3.93;;
57599;SDS011;43426;43.594;24.334;2023-05-07T03:22:44;5.22;;;4.72;;
57599;SDS011;43426;43.594;24.334;2023-05-07T03:25:09;8.95;;;4.38;;
57599;SDS011;43426;43.594;24.334;2023-05-07T03:27:35;5.07;;;4.22;;
57599;SDS011;43426;43.594;24.334;2023-05-07T03:30:01;4.28;;;3.97;;
57599;SDS011;43426;43.594;24.334;2023-05-07T03:32:26;6.10;;;4.87;;
57599;SDS011;43426;43.594;24.334;2023-05-07T03:34:52;9.52;;;5.00;;
57599;SDS011;43426;43.594;24.334;2023-05-07T03:37:17;5.40;;;4.90;;
57599;SDS011;43426;43.594;24.334;2023-05-07T03:39:43;5.80;;;5.18;;
57599;SDS011;43426;43.594;24.334;2023-05-07T03:42:08;6.43;;;5.20;;
57599;SDS011;43426;43.594;24.334;2023-05-07T03:44:34;8.05;;;5.25;;
57599;SDS011;43426;43.594;24.334;2023-05-07T03:47:01;6.75;;;4.65;;
57599;SDS011;43426;43.594;24.334;2023-05-07T03:49:27;5.90;;;5.38;;
57599;SDS011;43426;43.594;24.334;2023-05-07T03:51:52;7.07;;;4.90;;
57599;SDS011;43426;43.594;24.334;2023-05-07T03:54:17;6.47;;;3.90;;
57599;SDS011;43426;43.594;24.334;2023-05-07T03:56:43;4.80;;;4.40;;
57599;SDS011;43426;43.594;24.334;2023-05-07T03:59:08;6.53;;;4.55;;
57599;SDS011;43426;43.594;24.334;2023-05-07T04:01:33;7.85;;;4.60;;
57599;SDS011;43426;43.594;24.334;2023-05-07T04:03:59;5.00;;;3.67;;
57599;SDS011;43426;43.594;24.334;2023-05-07T04:06:24;4.53;;;4.13;;
57599;SDS011;43426;43.594;24.334;2023-05-07T04:08:50;5.72;;;3.85;;
57599;SDS011;43426;43.594;24.334;2023-05-07T04:11:15;8.70;;;4.25;;
57599;SDS011;43426;43.594;24.334;2023-05-07T04:13:41;4.53;;;4.10;;
57599;SDS011;43426;43.594;24.334;2023-05-07T04:16:06;4.20;;;3.80;;
57599;SDS011;43426;43.594;24.334;2023-05-07T04:18:32;7.38;;;3.88;;
57599;SDS011;43426;43.594;24.334;2023-05-07T04:20:57;5.10;;;4.70;;
57599;SDS011;43426;43.594;24.334;2023-05-07T04:23:22;4.27;;;3.80;;
57599;SDS011;43426;43.594;24.334;2023-05-07T04:25:48;4.03;;;3.72;;
57599;SDS011;43426;43.594;24.334;2023-05-07T04:28:13;4.57;;;4.07;;
57599;SDS011;43426;43.594;24.334;2023-05-07T04:30:39;3.78;;;3.42;;
57599;SDS011;43426;43.594;24.334;2023-05-07T04:33:04;5.97;;;3.58;;
57599;SDS011;43426;43.594;24.334;2023-05-07T04:35:31;5.55;;;4.10;;
57599;SDS011;43426;43.594;24.334;2023-05-07T04:37:57;4.57;;;4.18;;
57599;SDS011;43426;43.594;24.334;2023-05-07T04:40:22;4.97;;;3.70;;
57599;SDS011;43426;43.594;24.334;2023-05-07T04:42:48;7.88;;;4.68;;
57599;SDS011;43426;43.594;24.334;2023-05-07T04:45:13;5.65;;;5.13;;
57599;SDS011;43426;43.594;24.334;2023-05-07T04:47:38;9.98;;;4.85;;
57599;SDS011;43426;43.594;24.334;2023-05-07T04:52:30;5.00;;;4.57;;
57599;SDS011;43426;43.594;24.334;2023-05-07T04:54:56;6.03;;;4.90;;
57599;SDS011;43426;43.594;24.334;2023-05-07T04:59:47;6.30;;;4.28;;
57599;SDS011;43426;43.594;24.334;2023-05-07T05:04:37;4.63;;;4.30;;
57599;SDS011;43426;43.594;24.334;2023-05-07T05:09:31;5.18;;;4.78;;
57599;SDS011;43426;43.594;24.334;2023-05-07T05:14:21;6.18;;;4.93;;
57599;SDS011;43426;43.594;24.334;2023-05-07T05:16:47;5.53;;;4.88;;
57599;SDS011;43426;43.594;24.334;2023-05-07T05:19:12;4.93;;;4.38;;
57599;SDS011;43426;43.594;24.334;2023-05-07T05:24:03;4.43;;;4.13;;
57599;SDS011;43426;43.594;24.334;2023-05-07T05:28:54;5.68;;;5.28;;
57599;SDS011;43426;43.594;24.334;2023-05-07T05:31:19;6.97;;;4.53;;
57599;SDS011;43426;43.594;24.334;2023-05-07T05:36:10;4.85;;;4.47;;
57599;SDS011;43426;43.594;24.334;2023-05-07T05:38:36;4.97;;;4.60;;
57599;SDS011;43426;43.594;24.334;2023-05-07T05:41:02;4.80;;;4.40;;
57599;SDS011;43426;43.594;24.334;2023-05-07T05:43:28;7.35;;;4.30;;
57599;SDS011;43426;43.594;24.334;2023-05-07T05:45:53;4.25;;;3.85;;
57599;SDS011;43426;43.594;24.334;2023-05-07T05:48:20;3.83;;;3.53;;
57599;SDS011;43426;43.594;24.334;2023-05-07T05:50:46;4.07;;;3.35;;
57599;SDS011;43426;43.594;24.334;2023-05-07T05:53:11;6.47;;;3.65;;
57599;SDS011;43426;43.594;24.334;2023-05-07T05:55:36;3.83;;;3.53;;
57599;SDS011;43426;43.594;24.334;2023-05-07T05:58:02;3.53;;;3.22;;
57599;SDS011;43426;43.594;24.334;2023-05-07T06:00:28;4.32;;;4.03;;
57599;SDS011;43426;43.594;24.334;2023-05-07T06:02:54;3.63;;;3.33;;
57599;SDS011;43426;43.594;24.334;2023-05-07T06:05:20;3.90;;;3.60;;
57599;SDS011;43426;43.594;24.334;2023-05-07T06:07:45;6.90;;;3.70;;
57599;SDS011;43426;43.594;24.334;2023-05-07T06:10:11;3.67;;;3.38;;
57599;SDS011;43426;43.594;24.334;2023-05-07T06:12:36;3.75;;;3.40;;
57599;SDS011;43426;43.594;24.334;2023-05-07T06:15:02;3.50;;;3.20;;
57599;SDS011;43426;43.594;24.334;2023-05-07T06:17:28;3.63;;;3.33;;
57599;SDS011;43426;43.594;24.334;2023-05-07T06:19:53;3.20;;;2.90;;
57599;SDS011;43426;43.594;24.334;2023-05-07T06:22:19;3.03;;;2.83;;
57599;SDS011;43426;43.594;24.334;2023-05-07T06:24:44;3.00;;;2.75;;
57599;SDS011;43426;43.594;24.334;2023-05-07T06:27:10;3.47;;;2.97;;
57599;SDS011;43426;43.594;24.334;2023-05-07T06:29:35;3.30;;;3.00;;
57599;SDS011;43426;43.594;24.334;2023-05-07T06:34:33;2.85;;;2.10;;
57599;SDS011;43426;43.594;24.334;2023-05-07T06:36:58;2.10;;;2.00;;
57599;SDS011;43426;43.594;24.334;2023-05-07T06:39:24;2.03;;;1.90;;
57599;SDS011;43426;43.594;24.334;2023-05-07T06:41:49;3.08;;;2.20;;
57599;SDS011;43426;43.594;24.334;2023-05-07T06:44:15;3.20;;;1.80;;
57599;SDS011;43426;43.594;24.334;2023-05-07T06:46:40;3.70;;;1.85;;
57599;SDS011;43426;43.594;24.334;2023-05-07T06:49:06;1.58;;;1.48;;
57599;SDS011;43426;43.594;24.334;2023-05-07T06:51:31;1.95;;;1.85;;
57599;SDS011;43426;43.594;24.334;2023-05-07T06:53:57;2.90;;;1.75;;
57599;SDS011;43426;43.594;24.334;2023-05-07T06:56:22;1.80;;;1.63;;
57599;SDS011;43426;43.594;24.334;2023-05-07T06:58:48;1.42;;;1.33;;
57599;SDS011;43426;43.594;24.334;2023-05-07T07:01:13;2.17;;;1.55;;
57599;SDS011;43426;43.594;24.334;2023-05-07T07:03:39;1.77;;;1.67;;
57599;SDS011;43426;43.594;24.334;2023-05-07T07:06:04;1.67;;;1.58;;
57599;SDS011;43426;43.594;24.334;2023-05-07T07:08:30;4.50;;;1.92;;
57599;SDS011;43426;43.594;24.334;2023-05-07T07:10:57;1.92;;;1.67;;
57599;SDS011;43426;43.594;24.334;2023-05-07T07:13:23;3.10;;;1.63;;
57599;SDS011;43426;43.594;24.334;2023-05-07T07:15:48;1.45;;;1.35;;
57599;SDS011;43426;43.594;24.334;2023-05-07T07:18:14;1.52;;;1.42;;
57599;SDS011;43426;43.594;24.334;2023-05-07T07:20:40;1.60;;;1.50;;
57599;SDS011;43426;43.594;24.334;2023-05-07T07:23:05;2.13;;;1.40;;
57599;SDS011;43426;43.594;24.334;2023-05-07T07:25:31;1.42;;;1.33;;
57599;SDS011;43426;43.594;24.334;2023-05-07T07:27:57;1.50;;;1.38;;
57599;SDS011;43426;43.594;24.334;2023-05-07T07:30:22;1.48;;;1.30;;
57599;SDS011;43426;43.594;24.334;2023-05-07T07:32:48;1.88;;;1.52;;
57599;SDS011;43426;43.594;24.334;2023-05-07T07:35:13;1.98;;;1.55;;
57599;SDS011;43426;43.594;24.334;2023-05-07T07:37:39;1.52;;;1.42;;
57599;SDS011;43426;43.594;24.334;2023-05-07T07:40:04;1.42;;;1.33;;
57599;SDS011;43426;43.594;24.334;2023-05-07T07:42:30;1.40;;;1.30;;
57599;SDS011;43426;43.594;24.334;2023-05-07T07:44:56;2.42;;;1.88;;
57599;SDS011;43426;43.594;24.334;2023-05-07T07:47:22;1.40;;;1.30;;
57599;SDS011;43426;43.594;24.334;2023-05-07T07:49:47;1.30;;;1.20;;
57599;SDS011;43426;43.594;24.334;2023-05-07T07:52:13;1.65;;;1.05;;
57599;SDS011;43426;43.594;24.334;2023-05-07T07:54:38;1.77;;;1.45;;
57599;SDS011;43426;43.594;24.334;2023-05-07T07:57:04;5.22;;;1.20;;
57599;SDS011;43426;43.594;24.334;2023-05-07T07:59:30;4.68;;;1.17;;
57599;SDS011;43426;43.594;24.334;2023-05-07T08:01:55;4.07;;;1.20;;
57599;SDS011;43426;43.594;24.334;2023-05-07T08:04:22;1.10;;;0.90;;
57599;SDS011;43426;43.594;24.334;2023-05-07T08:06:48;1.73;;;1.10;;
57599;SDS011;43426;43.594;24.334;2023-05-07T08:09:13;1.92;;;1.15;;
57599;SDS011;43426;43.594;24.334;2023-05-07T08:13:47;1.73;;;0.70;;
57599;SDS011;43426;43.594;24.334;2023-05-07T08:16:12;1.00;;;0.88;;
57599;SDS011;43426;43.594;24.334;2023-05-07T08:18:38;2.15;;;1.00;;
57599;SDS011;43426;43.594;24.334;2023-05-07T08:21:04;0.80;;;0.80;;
57599;SDS011;43426;43.594;24.334;2023-05-07T08:23:29;1.00;;;0.90;;
57599;SDS011;43426;43.594;24.334;2023-05-07T08:25:55;1.98;;;0.90;;
57599;SDS011;43426;43.594;24.334;2023-05-07T08:28:20;1.10;;;0.88;;
57599;SDS011;43426;43.594;24.334;2023-05-07T08:30:46;1.42;;;0.90;;
57599;SDS011;43426;43.594;24.334;2023-05-07T08:33:12;2.80;;;0.82;;
57599;SDS011;43426;43.594;24.334;2023-05-07T08:35:37;4.03;;;0.90;;
57599;SDS011;43426;43.594;24.334;2023-05-07T08:38:06;1.10;;;0.93;;
57599;SDS011;43426;43.594;24.334;2023-05-07T08:40:37;1.17;;;1.08;;
57599;SDS011;43426;43.594;24.334;2023-05-07T08:43:12;0.95;;;0.70;;
57599;SDS011;43426;43.594;24.334;2023-05-07T08:45:39;1.13;;;0.73;;
57599;SDS011;43426;43.594;24.334;2023-05-07T08:48:07;0.70;;;0.70;;
57599;SDS011;43426;43.594;24.334;2023-05-07T08:50:39;0.82;;;0.80;;
57599;SDS011;43426;43.594;24.334;2023-05-07T08:53:05;35.08;;;10.52;;
57599;SDS011;43426;43.594;24.334;2023-05-07T08:55:30;2.28;;;1.55;;
57599;SDS011;43426;43.594;24.334;2023-05-07T08:57:56;0.90;;;0.80;;
57599;SDS011;43426;43.594;24.334;2023-05-07T09:00:21;0.73;;;0.73;;
57599;SDS011;43426;43.594;24.334;2023-05-07T09:02:47;2.00;;;0.90;;
57599;SDS011;43426;43.594;24.334;2023-05-07T09:05:15;0.95;;;0.80;;
57599;SDS011;43426;43.594;24.334;2023-05-07T09:07:40;1.73;;;1.00;;
57599;SDS011;43426;43.594;24.334;2023-05-07T09:10:06;1.60;;;1.10;;
57599;SDS011;43426;43.594;24.334;2023-05-07T09:12:32;0.80;;;0.77;;
57599;SDS011;43426;43.594;24.334;2023-05-07T09:14:58;1.90;;;1.08;;
57599;SDS011;43426;43.594;24.334;2023-05-07T09:17:24;1.38;;;1.00;;
57599;SDS011;43426;43.594;24.334;2023-05-07T09:19:49;1.27;;;0.80;;
57599;SDS011;43426;43.594;24.334;2023-05-07T09:22:15;2.05;;;1.20;;
57599;SDS011;43426;43.594;24.334;2023-05-07T09:24:50;4.72;;;1.00;;
57599;SDS011;43426;43.594;24.334;2023-05-07T09:27:16;2.35;;;1.00;;
57599;SDS011;43426;43.594;24.334;2023-05-07T09:29:43;1.35;;;1.23;;
57599;SDS011;43426;43.594;24.334;2023-05-07T09:32:09;0.88;;;0.85;;
57599;SDS011;43426;43.594;24.334;2023-05-07T09:34:35;1.20;;;0.93;;
57599;SDS011;43426;43.594;24.334;2023-05-07T09:37:04;3.90;;;1.27;;
57599;SDS011;43426;43.594;24.334;2023-05-07T09:42:08;2.25;;;1.23;;
57599;SDS011;43426;43.594;24.334;2023-05-07T09:44:35;1.17;;;1.08;;
57599;SDS011;43426;43.594;24.334;2023-05-07T09:47:01;1.23;;;0.88;;
57599;SDS011;43426;43.594;24.334;2023-05-07T09:49:36;2.08;;;1.10;;
57599;SDS011;43426;43.594;24.334;2023-05-07T09:52:04;0.98;;;0.90;;
57599;SDS011;43426;43.594;24.334;2023-05-07T09:54:32;2.10;;;0.90;;
57599;SDS011;43426;43.594;24.334;2023-05-07T09:56:59;1.27;;;1.15;;
57599;SDS011;43426;43.594;24.334;2023-05-07T09:59:27;0.73;;;0.73;;
57599;SDS011;43426;43.594;24.334;2023-05-07T10:01:56;1.15;;;0.80;;
57599;SDS011;43426;43.594;24.334;2023-05-07T10:04:24;0.70;;;0.70;;
57599;SDS011;43426;43.594;24.334;2023-05-07T10:06:50;1.35;;;0.95;;
57599;SDS011;43426;43.594;24.334;2023-05-07T10:09:16;1.40;;;0.80;;
57599;SDS011;43426;43.594;24.334;2023-05-07T10:11:43;0.98;;;0.80;;
57599;SDS011;43426;43.594;24.334;2023-05-07T10:14:11;2.45;;;0.90;;
57599;SDS011;43426;43.594;24.334;2023-05-07T10:16:37;3.10;;;0.90;;
57599;SDS011;43426;43.594;24.334;2023-05-07T10:19:03;1.08;;;0.90;;
57599;SDS011;43426;43.594;24.334;2023-05-07T10:21:29;0.77;;;0.77;;
57599;SDS011;43426;43.594;24.334;2023-05-07T10:24:04;1.35;;;0.77;;
57599;SDS011;43426;43.594;24.334;2023-05-07T10:26:42;1.15;;;1.05;;
57599;SDS011;43426;43.594;24.334;2023-05-07T10:29:15;2.13;;;0.80;;
57599;SDS011;43426;43.594;24.334;2023-05-07T10:34:39;2.20;;;1.50;;
57599;SDS011;43426;43.594;24.334;2023-05-07T10:37:08;0.88;;;0.80;;
57599;SDS011;43426;43.594;24.334;2023-05-07T10:39:35;2.78;;;1.70;;
57599;SDS011;43426;43.594;24.334;2023-05-07T10:42:11;3.28;;;1.88;;
57599;SDS011;43426;43.594;24.334;2023-05-07T10:44:38;4.13;;;1.40;;
57599;SDS011;43426;43.594;24.334;2023-05-07T10:47:10;2.95;;;1.38;;
57599;SDS011;43426;43.594;24.334;2023-05-07T10:54:40;3.50;;;0.88;;
57599;SDS011;43426;43.594;24.334;2023-05-07T10:59:56;1.10;;;0.90;;
57599;SDS011;43426;43.594;24.334;2023-05-07T11:02:22;1.20;;;1.10;;
57599;SDS011;43426;43.594;24.334;2023-05-07T11:07:54;1.88;;;0.82;;
57599;SDS011;43426;43.594;24.334;2023-05-07T11:10:20;1.75;;;0.90;;
57599;SDS011;43426;43.594;24.334;2023-05-07T11:12:46;2.17;;;1.10;;
57599;SDS011;43426;43.594;24.334;2023-05-07T11:15:13;1.50;;;0.93;;
57599;SDS011;43426;43.594;24.334;2023-05-07T11:17:54;1.40;;;1.30;;
57599;SDS011;43426;43.594;24.334;2023-05-07T11:23:12;1.50;;;0.90;;
57599;SDS011;43426;43.594;24.334;2023-05-07T11:26:03;1.13;;;1.08;;
57599;SDS011;43426;43.594;24.334;2023-05-07T11:28:39;1.13;;;0.93;;
57599;SDS011;43426;43.594;24.334;2023-05-07T11:31:06;0.80;;;0.80;;
57599;SDS011;43426;43.594;24.334;2023-05-07T11:33:32;0.90;;;0.90;;
57599;SDS011;43426;43.594;24.334;2023-05-07T11:35:59;1.35;;;1.00;;
57599;SDS011;43426;43.594;24.334;2023-05-07T11:38:25;1.05;;;0.80;;
57599;SDS011;43426;43.594;24.334;2023-05-07T11:40:55;2.80;;;0.90;;
57599;SDS011;43426;43.594;24.334;2023-05-07T11:43:22;2.67;;;1.02;;
57599;SDS011;43426;43.594;24.334;2023-05-07T11:45:47;1.10;;;1.00;;
57599;SDS011;43426;43.594;24.334;2023-05-07T11:48:14;1.55;;;1.33;;
57599;SDS011;43426;43.594;24.334;2023-05-07T11:50:50;1.00;;;0.90;;
57599;SDS011;43426;43.594;24.334;2023-05-07T11:53:20;1.95;;;0.70;;
57599;SDS011;43426;43.594;24.334;2023-05-07T11:55:46;0.80;;;0.80;;
57599;SDS011;43426;43.594;24.334;2023-05-07T11:58:12;1.13;;;0.90;;
57599;SDS011;43426;43.594;24.334;2023-05-07T12:00:38;0.82;;;0.82;;
57599;SDS011;43426;43.594;24.334;2023-05-07T12:03:06;0.95;;;0.73;;
57599;SDS011;43426;43.594;24.334;2023-05-07T12:05:31;2.70;;;1.00;;
57599;SDS011;43426;43.594;24.334;2023-05-07T12:07:57;2.63;;;0.98;;
57599;SDS011;43426;43.594;24.334;2023-05-07T12:10:22;1.30;;;1.00;;
57599;SDS011;43426;43.594;24.334;2023-05-07T12:12:52;2.85;;;0.90;;
57599;SDS011;43426;43.594;24.334;2023-05-07T12:15:17;1.77;;;1.10;;
57599;SDS011;43426;43.594;24.334;2023-05-07T12:17:50;1.25;;;0.90;;
57599;SDS011;43426;43.594;24.334;2023-05-07T12:20:17;1.63;;;0.98;;
57599;SDS011;43426;43.594;24.334;2023-05-07T12:22:43;0.90;;;0.85;;
57599;SDS011;43426;43.594;24.334;2023-05-07T12:25:09;2.30;;;0.90;;
57599;SDS011;43426;43.594;24.334;2023-05-07T12:27:36;1.30;;;0.90;;
57599;SDS011;43426;43.594;24.334;2023-05-07T12:30:04;1.05;;;0.88;;
57599;SDS011;43426;43.594;24.334;2023-05-07T12:32:29;1.00;;;0.90;;
57599;SDS011;43426;43.594;24.334;2023-05-07T12:34:55;2.80;;;0.90;;
57599;SDS011;43426;43.594;24.334;2023-05-07T12:37:23;1.77;;;0.90;;
57599;SDS011;43426;43.594;24.334;2023-05-07T12:40:11;2.10;;;1.13;;
57599;SDS011;43426;43.594;24.334;2023-05-07T12:42:36;2.72;;;1.65;;
57599;SDS011;43426;43.594;24.334;2023-05-07T12:45:15;0.90;;;0.90;;
57599;SDS011;43426;43.594;24.334;2023-05-07T12:47:44;1.17;;;1.00;;
57599;SDS011;43426;43.594;24.334;2023-05-07T12:50:10;0.80;;;0.80;;
57599;SDS011;43426;43.594;24.334;2023-05-07T12:52:36;1.27;;;0.90;;
57599;SDS011;43426;43.594;24.334;2023-05-07T12:55:05;1.00;;;0.88;;
57599;SDS011;43426;43.594;24.334;2023-05-07T12:57:37;1.08;;;0.98;;
57599;SDS011;43426;43.594;24.334;2023-05-07T13:00:04;2.30;;;0.80;;
57599;SDS011;43426;43.594;24.334;2023-05-07T13:02:33;6.43;;;1.10;;
57599;SDS011;43426;43.594;24.334;2023-05-07T13:05:02;0.90;;;0.90;;
57599;SDS011;43426;43.594;24.334;2023-05-07T13:07:28;1.33;;;1.00;;
57599;SDS011;43426;43.594;24.334;2023-05-07T13:09:53;1.08;;;0.98;;
57599;SDS011;43426;43.594;24.334;2023-05-07T13:12:18;3.00;;;0.98;;
57599;SDS011;43426;43.594;24.334;2023-05-07T13:14:44;1.10;;;1.00;;
57599;SDS011;43426;43.594;24.334;2023-05-07T13:17:09;0.80;;;0.80;;
57599;SDS011;43426;43.594;24.334;2023-05-07T13:19:35;1.00;;;1.00;;
57599;SDS011;43426;43.594;24.334;2023-05-07T13:22:02;1.08;;;0.98;;
57599;SDS011;43426;43.594;24.334;2023-05-07T13:24:28;1.95;;;0.90;;
57599;SDS011;43426;43.594;24.334;2023-05-07T13:26:53;1.95;;;1.00;;
57599;SDS011;43426;43.594;24.334;2023-05-07T13:29:18;3.05;;;1.10;;
57599;SDS011;43426;43.594;24.334;2023-05-07T13:31:44;1.30;;;1.08;;
57599;SDS011;43426;43.594;24.334;2023-05-07T13:34:10;1.10;;;0.82;;
57599;SDS011;43426;43.594;24.334;2023-05-07T13:36:35;0.90;;;0.90;;
57599;SDS011;43426;43.594;24.334;2023-05-07T13:39:04;1.10;;;1.00;;
57599;SDS011;43426;43.594;24.334;2023-05-07T13:41:31;1.35;;;1.10;;
57599;SDS011;43426;43.594;24.334;2023-05-07T13:43:56;1.05;;;0.88;;
57599;SDS011;43426;43.594;24.334;2023-05-07T13:46:21;1.17;;;1.05;;
57599;SDS011;43426;43.594;24.334;2023-05-07T13:48:47;1.02;;;0.80;;
57599;SDS011;43426;43.594;24.334;2023-05-07T13:51:12;1.75;;;1.05;;
57599;SDS011;43426;43.594;24.334;2023-05-07T13:53:38;1.27;;;1.15;;
57599;SDS011;43426;43.594;24.334;2023-05-07T13:56:04;1.33;;;0.90;;
57599;SDS011;43426;43.594;24.334;2023-05-07T13:58:30;0.80;;;0.80;;
57599;SDS011;43426;43.594;24.334;2023-05-07T14:00:58;1.55;;;0.95;;
57599;SDS011;43426;43.594;24.334;2023-05-07T14:03:23;1.17;;;0.90;;
57599;SDS011;43426;43.594;24.334;2023-05-07T14:05:48;1.27;;;1.08;;
57599;SDS011;43426;43.594;24.334;2023-05-07T14:08:14;1.63;;;1.10;;
57599;SDS011;43426;43.594;24.334;2023-05-07T14:10:39;1.00;;;0.80;;
57599;SDS011;43426;43.594;24.334;2023-05-07T14:13:05;1.42;;;1.00;;
57599;SDS011;43426;43.594;24.334;2023-05-07T14:15:31;1.58;;;1.13;;
57599;SDS011;43426;43.594;24.334;2023-05-07T14:17:57;1.35;;;0.98;;
57599;SDS011;43426;43.594;24.334;2023-05-07T14:20:26;8.52;;;1.00;;
57599;SDS011;43426;43.594;24.334;2023-05-07T14:22:51;3.15;;;0.82;;
57599;SDS011;43426;43.594;24.334;2023-05-07T14:25:17;5.78;;;1.33;;
57599;SDS011;43426;43.594;24.334;2023-05-07T14:27:42;1.33;;;1.10;;
57599;SDS011;43426;43.594;24.334;2023-05-07T14:30:08;3.33;;;1.15;;
57599;SDS011;43426;43.594;24.334;2023-05-07T14:32:33;2.22;;;0.93;;
57599;SDS011;43426;43.594;24.334;2023-05-07T14:34:59;1.20;;;0.88;;
57599;SDS011;43426;43.594;24.334;2023-05-07T14:37:25;1.10;;;1.00;;
57599;SDS011;43426;43.594;24.334;2023-05-07T14:39:50;1.27;;;0.95;;
57599;SDS011;43426;43.594;24.334;2023-05-07T14:42:16;0.80;;;0.80;;
57599;SDS011;43426;43.594;24.334;2023-05-07T14:44:42;1.65;;;0.90;;
57599;SDS011;43426;43.594;24.334;2023-05-07T14:47:09;1.05;;;0.90;;
57599;SDS011;43426;43.594;24.334;2023-05-07T14:49:35;1.27;;;1.10;;
57599;SDS011;43426;43.594;24.334;2023-05-07T14:52:00;2.25;;;1.00;;
57599;SDS011;43426;43.594;24.334;2023-05-07T14:54:26;1.10;;;1.00;;
57599;SDS011;43426;43.594;24.334;2023-05-07T14:56:51;1.33;;;0.93;;
57599;SDS011;43426;43.594;24.334;2023-05-07T14:59:17;0.93;;;0.80;;
57599;SDS011;43426;43.594;24.334;2023-05-07T15:01:45;0.88;;;0.88;;
57599;SDS011;43426;43.594;24.334;2023-05-07T15:04:12;1.38;;;1.08;;
57599;SDS011;43426;43.594;24.334;2023-05-07T15:06:37;1.77;;;1.10;;
57599;SDS011;43426;43.594;24.334;2023-05-07T15:09:03;2.63;;;1.10;;
57599;SDS011;43426;43.594;24.334;2023-05-07T15:11:29;1.30;;;1.20;;
57599;SDS011;43426;43.594;24.334;2023-05-07T15:13:55;2.25;;;1.30;;
57599;SDS011;43426;43.594;24.334;2023-05-07T15:16:21;1.92;;;1.27;;
57599;SDS011;43426;43.594;24.334;2023-05-07T15:18:46;1.30;;;1.20;;
57599;SDS011;43426;43.594;24.334;2023-05-07T15:21:12;1.23;;;0.80;;
57599;SDS011;43426;43.594;24.334;2023-05-07T15:23:38;2.58;;;1.02;;